sensor_id;sensor_type;location;lat;lon;timestamp;temperature;humidity
1355;DHT22;671;48.972;9.276;2023-05-21T00:01:52;17.10;99.90
1355;DHT22;671;48.972;9.276;2023-05-21T00:04:19;17.10;99.90
1355;DHT22;671;48.972;9.276;2023-05-21T00:06:45;17.10;99.90
1355;DHT22;671;48.972;9.276;2023-05-21T00:09:12;17.10;99.90
1355;DHT22;671;48.972;9.276;2023-05-21T00:11:38;17.00;99.90
1355;DHT22;671;48.972;9.276;2023-05-21T00:14:05;17.00;99.90
1355;DHT22;671;48.972;9.276;2023-05-21T00:16:31;17.00;99.90
1355;DHT22;671;48.972;9.276;2023-05-21T00:18:58;17.00;99.90
1355;DHT22;671;48.972;9.276;2023-05-21T00:21:24;16.90;99.90
1355;DHT22;671;48.972;9.276;2023-05-21T00:23:52;16.90;99.90
1355;DHT22;671;48.972;9.276;2023-05-21T00:26:22;16.90;99.90
1355;DHT22;671;48.972;9.276;2023-05-21T00:28:49;16.80;99.90
1355;DHT22;671;48.972;9.276;2023-05-21T00:31:16;16.80;99.90
1355;DHT22;671;48.972;9.276;2023-05-21T00:33:42;16.80;99.90
1355;DHT22;671;48.972;9.276;2023-05-21T00:36:09;16.80;99.90
1355;DHT22;671;48.972;9.276;2023-05-21T00:38:40;16.80;99.90
1355;DHT22;671;48.972;9.276;2023-05-21T00:41:09;16.80;99.90
1355;DHT22;671;48.972;9.276;2023-05-21T00:43:36;16.80;99.90
1355;DHT22;671;48.972;9.276;2023-05-21T00:46:10;16.70;99.90
1355;DHT22;671;48.972;9.276;2023-05-21T00:48:37;16.70;99.90
1355;DHT22;671;48.972;9.276;2023-05-21T00:51:05;16.70;99.90
1355;DHT22;671;48.972;9.276;2023-05-21T00:53:32;16.70;99.90
1355;DHT22;671;48.972;9.276;2023-05-21T00:56:02;16.70;99.90
1355;DHT22;671;48.972;9.276;2023-05-21T00:58:29;16.60;99.90
1355;DHT22;671;48.972;9.276;2023-05-21T01:00:59;16.60;99.90
1355;DHT22;671;48.972;9.276;2023-05-21T01:03:29;16.50;99.90
1355;DHT22;671;48.972;9.276;2023-05-21T01:05:56;16.50;99.90
1355;DHT22;671;48.972;9.276;2023-05-21T01:08:25;16.50;99.90
1355;DHT22;671;48.972;9.276;2023-05-21T01:10:54;16.50;99.90
1355;DHT22;671;48.972;9.276;2023-05-21T01:13:21;16.50;99.90
1355;DHT22;671;48.972;9.276;2023-05-21T01:15:48;16.40;99.90
1355;DHT22;671;48.972;9.276;2023-05-21T01:18:15;16.30;99.90
1355;DHT22;671;48.972;9.276;2023-05-21T01:20:42;16.30;99.90
1355;DHT22;671;48.972;9.276;2023-05-21T01:23:16;16.30;99.90
1355;DHT22;671;48.972;9.276;2023-05-21T01:25:43;16.20;99.90
1355;DHT22;671;48.972;9.276;2023-05-21T01:28:10;16.30;99.90
1355;DHT22;671;48.972;9.276;2023-05-21T01:30:38;16.30;99.90
1355;DHT22;671;48.972;9.276;2023-05-21T01:33:25;16.30;99.90
1355;DHT22;671;48.972;9.276;2023-05-21T01:38:40;16.30;99.90
1355;DHT22;671;48.972;9.276;2023-05-21T01:41:10;16.20;99.90
1355;DHT22;671;48.972;9.276;2023-05-21T01:43:38;16.20;99.90
1355;DHT22;671;48.972;9.276;2023-05-21T01:46:09;16.20;99.90
1355;DHT22;671;48.972;9.276;2023-05-21T01:48:36;16.20;99.90
1355;DHT22;671;48.972;9.276;2023-05-21T01:51:04;16.20;99.90
1355;DHT22;671;48.972;9.276;2023-05-21T01:53:31;16.20;99.90
1355;DHT22;671;48.972;9.276;2023-05-21T01:55:58;16.20;99.90
1355;DHT22;671;48.972;9.276;2023-05-21T01:58:24;16.20;99.90
1355;DHT22;671;48.972;9.276;2023-05-21T02:00:51;16.20;99.90
1355;DHT22;671;48.972;9.276;2023-05-21T02:03:19;16.20;99.90
1355;DHT22;671;48.972;9.276;2023-05-21T02:05:45;16.10;99.90
1355;DHT22;671;48.972;9.276;2023-05-21T02:08:12;16.10;99.90
1355;DHT22;671;48.972;9.276;2023-05-21T02:10:40;16.10;99.90
1355;DHT22;671;48.972;9.276;2023-05-21T02:13:06;16.10;99.90
1355;DHT22;671;48.972;9.276;2023-05-21T02:15:33;16.10;99.90
1355;DHT22;671;48.972;9.276;2023-05-21T02:17:59;16.10;99.90
1355;DHT22;671;48.972;9.276;2023-05-21T02:20:26;16.00;99.90
1355;DHT22;671;48.972;9.276;2023-05-21T02:22:53;16.00;99.90
1355;DHT22;671;48.972;9.276;2023-05-21T02:25:19;16.00;99.90
1355;DHT22;671;48.972;9.276;2023-05-21T02:27:46;15.90;99.90
1355;DHT22;671;48.972;9.276;2023-05-21T02:30:14;15.90;99.90
1355;DHT22;671;48.972;9.276;2023-05-21T02:32:41;15.90;99.90
1355;DHT22;671;48.972;9.276;2023-05-21T02:35:10;15.90;99.90
1355;DHT22;671;48.972;9.276;2023-05-21T02:37:38;15.80;99.90
1355;DHT22;671;48.972;9.276;2023-05-21T02:40:06;15.80;99.90
1355;DHT22;671;48.972;9.276;2023-05-21T02:42:33;15.70;99.90
1355;DHT22;671;48.972;9.276;2023-05-21T02:44:59;15.70;99.90
1355;DHT22;671;48.972;9.276;2023-05-21T02:47:26;15.70;99.90
1355;DHT22;671;48.972;9.276;2023-05-21T02:49:53;15.70;99.90
1355;DHT22;671;48.972;9.276;2023-05-21T02:52:20;15.70;99.90
1355;DHT22;671;48.972;9.276;2023-05-21T02:54:47;15.70;99.90
1355;DHT22;671;48.972;9.276;2023-05-21T02:57:14;15.60;99.90
1355;DHT22;671;48.972;9.276;2023-05-21T02:59:41;15.60;99.90
1355;DHT22;671;48.972;9.276;2023-05-21T03:02:07;15.60;99.90
1355;DHT22;671;48.972;9.276;2023-05-21T03:04:33;15.50;99.90
1355;DHT22;671;48.972;9.276;2023-05-21T03:07:04;15.50;99.90
1355;DHT22;671;48.972;9.276;2023-05-21T03:09:31;15.50;99.90
1355;DHT22;671;48.972;9.276;2023-05-21T03:11:57;15.50;99.90
1355;DHT22;671;48.972;9.276;2023-05-21T03:14:24;15.50;99.90
1355;DHT22;671;48.972;9.276;2023-05-21T03:16:50;15.40;99.90
1355;DHT22;671;48.972;9.276;2023-05-21T03:19:17;15.30;99.90
1355;DHT22;671;48.972;9.276;2023-05-21T03:21:43;15.40;99.90
1355;DHT22;671;48.972;9.276;2023-05-21T03:24:10;15.30;99.90
1355;DHT22;671;48.972;9.276;2023-05-21T03:26:38;15.30;99.90
1355;DHT22;671;48.972;9.276;2023-05-21T03:29:05;15.30;99.90
1355;DHT22;671;48.972;9.276;2023-05-21T03:31:31;15.20;99.90
1355;DHT22;671;48.972;9.276;2023-05-21T03:33:58;15.20;99.90
1355;DHT22;671;48.972;9.276;2023-05-21T03:36:24;15.20;99.90
1355;DHT22;671;48.972;9.276;2023-05-21T03:38:51;15.20;99.90
1355;DHT22;671;48.972;9.276;2023-05-21T03:41:17;15.20;99.90
1355;DHT22;671;48.972;9.276;2023-05-21T03:43:44;15.30;99.90
1355;DHT22;671;48.972;9.276;2023-05-21T03:46:10;15.30;99.90
1355;DHT22;671;48.972;9.276;2023-05-21T03:48:37;15.30;99.90
1355;DHT22;671;48.972;9.276;2023-05-21T03:51:03;15.30;99.90
1355;DHT22;671;48.972;9.276;2023-05-21T03:53:32;15.20;99.90
1355;DHT22;671;48.972;9.276;2023-05-21T03:55:59;15.20;99.90
1355;DHT22;671;48.972;9.276;2023-05-21T03:58:25;15.20;99.90
1355;DHT22;671;48.972;9.276;2023-05-21T04:00:53;15.20;99.90
1355;DHT22;671;48.972;9.276;2023-05-21T04:03:19;15.20;99.90
1355;DHT22;671;48.972;9.276;2023-05-21T04:05:46;15.20;99.90
1355;DHT22;671;48.972;9.276;2023-05-21T04:08:12;15.20;99.90
1355;DHT22;671;48.972;9.276;2023-05-21T04:10:39;15.20;99.90
1355;DHT22;671;48.972;9.276;2023-05-21T04:13:05;15.20;99.90
1355;DHT22;671;48.972;9.276;2023-05-21T04:15:32;15.20;99.90
1355;DHT22;671;48.972;9.276;2023-05-21T04:18:00;15.20;99.90
1355;DHT22;671;48.972;9.276;2023-05-21T04:20:26;15.20;99.90
1355;DHT22;671;48.972;9.276;2023-05-21T04:22:53;15.30;99.90
1355;DHT22;671;48.972;9.276;2023-05-21T04:25:19;15.30;99.90
1355;DHT22;671;48.972;9.276;2023-05-21T04:27:47;15.30;99.90
1355;DHT22;671;48.972;9.276;2023-05-21T04:30:13;15.30;99.90
1355;DHT22;671;48.972;9.276;2023-05-21T04:32:40;15.30;99.90
1355;DHT22;671;48.972;9.276;2023-05-21T04:35:07;15.40;99.90
1355;DHT22;671;48.972;9.276;2023-05-21T04:37:33;15.40;99.90
1355;DHT22;671;48.972;9.276;2023-05-21T04:40:01;15.40;99.90
1355;DHT22;671;48.972;9.276;2023-05-21T04:42:27;15.40;99.90
1355;DHT22;671;48.972;9.276;2023-05-21T04:44:55;15.50;99.90
1355;DHT22;671;48.972;9.276;2023-05-21T04:47:24;15.50;99.90
1355;DHT22;671;48.972;9.276;2023-05-21T04:49:51;15.50;99.90
1355;DHT22;671;48.972;9.276;2023-05-21T04:52:18;15.60;99.90
1355;DHT22;671;48.972;9.276;2023-05-21T04:54:45;15.60;99.90
1355;DHT22;671;48.972;9.276;2023-05-21T04:57:13;15.60;99.90
1355;DHT22;671;48.972;9.276;2023-05-21T04:59:39;15.70;99.90
1355;DHT22;671;48.972;9.276;2023-05-21T05:02:06;15.70;99.90
1355;DHT22;671;48.972;9.276;2023-05-21T05:04:33;15.70;99.90
1355;DHT22;671;48.972;9.276;2023-05-21T05:06:59;15.70;99.90
1355;DHT22;671;48.972;9.276;2023-05-21T05:09:26;15.80;99.90
1355;DHT22;671;48.972;9.276;2023-05-21T05:11:52;15.80;99.90
1355;DHT22;671;48.972;9.276;2023-05-21T05:14:19;15.90;99.90
1355;DHT22;671;48.972;9.276;2023-05-21T05:16:45;15.90;99.90
1355;DHT22;671;48.972;9.276;2023-05-21T05:19:13;16.00;99.90
1355;DHT22;671;48.972;9.276;2023-05-21T05:21:39;16.00;99.90
1355;DHT22;671;48.972;9.276;2023-05-21T05:24:06;16.10;99.90
1355;DHT22;671;48.972;9.276;2023-05-21T05:26:32;16.20;99.90
1355;DHT22;671;48.972;9.276;2023-05-21T05:28:59;16.20;99.90
1355;DHT22;671;48.972;9.276;2023-05-21T05:31:25;16.30;99.90
1355;DHT22;671;48.972;9.276;2023-05-21T05:33:52;16.50;99.90
1355;DHT22;671;48.972;9.276;2023-05-21T05:36:18;16.60;99.90
1355;DHT22;671;48.972;9.276;2023-05-21T05:38:45;16.70;99.90
1355;DHT22;671;48.972;9.276;2023-05-21T05:41:11;16.70;99.90
1355;DHT22;671;48.972;9.276;2023-05-21T05:43:38;16.80;99.90
1355;DHT22;671;48.972;9.276;2023-05-21T05:46:04;16.90;99.90
1355;DHT22;671;48.972;9.276;2023-05-21T05:48:31;17.00;99.90
1355;DHT22;671;48.972;9.276;2023-05-21T05:50:57;17.20;99.90
1355;DHT22;671;48.972;9.276;2023-05-21T05:53:24;17.30;99.90
1355;DHT22;671;48.972;9.276;2023-05-21T05:55:50;17.40;99.90
1355;DHT22;671;48.972;9.276;2023-05-21T05:58:17;17.50;99.90
1355;DHT22;671;48.972;9.276;2023-05-21T06:00:43;17.60;99.90
1355;DHT22;671;48.972;9.276;2023-05-21T06:03:10;17.70;99.90
1355;DHT22;671;48.972;9.276;2023-05-21T06:05:37;17.80;99.90
1355;DHT22;671;48.972;9.276;2023-05-21T06:08:04;17.90;99.90
1355;DHT22;671;48.972;9.276;2023-05-21T06:10:31;18.00;99.90
1355;DHT22;671;48.972;9.276;2023-05-21T06:12:57;18.10;99.90
1355;DHT22;671;48.972;9.276;2023-05-21T06:15:23;18.20;99.90
1355;DHT22;671;48.972;9.276;2023-05-21T06:17:50;18.30;99.90
1355;DHT22;671;48.972;9.276;2023-05-21T06:20:16;18.40;99.90
1355;DHT22;671;48.972;9.276;2023-05-21T06:22:43;18.50;99.90
1355;DHT22;671;48.972;9.276;2023-05-21T06:25:10;18.50;99.90
1355;DHT22;671;48.972;9.276;2023-05-21T06:27:37;18.60;99.90
1355;DHT22;671;48.972;9.276;2023-05-21T06:30:04;18.60;99.90
1355;DHT22;671;48.972;9.276;2023-05-21T06:32:31;18.70;99.90
1355;DHT22;671;48.972;9.276;2023-05-21T06:34:57;18.70;99.90
1355;DHT22;671;48.972;9.276;2023-05-21T06:37:24;18.80;99.90
1355;DHT22;671;48.972;9.276;2023-05-21T06:39:51;18.80;99.90
1355;DHT22;671;48.972;9.276;2023-05-21T06:42:17;18.90;99.90
1355;DHT22;671;48.972;9.276;2023-05-21T06:44:43;19.00;99.90
1355;DHT22;671;48.972;9.276;2023-05-21T06:47:10;19.10;99.90
1355;DHT22;671;48.972;9.276;2023-05-21T06:49:36;19.20;99.90
1355;DHT22;671;48.972;9.276;2023-05-21T06:52:03;19.40;99.90
1355;DHT22;671;48.972;9.276;2023-05-21T06:54:30;19.50;99.90
1355;DHT22;671;48.972;9.276;2023-05-21T06:56:57;19.60;99.90
1355;DHT22;671;48.972;9.276;2023-05-21T06:59:23;19.70;99.90
1355;DHT22;671;48.972;9.276;2023-05-21T07:01:50;19.80;99.90
1355;DHT22;671;48.972;9.276;2023-05-21T07:04:16;19.80;99.90
1355;DHT22;671;48.972;9.276;2023-05-21T07:06:43;20.00;99.90
1355;DHT22;671;48.972;9.276;2023-05-21T07:09:09;20.10;99.90
1355;DHT22;671;48.972;9.276;2023-05-21T07:11:36;20.40;99.90
1355;DHT22;671;48.972;9.276;2023-05-21T07:14:02;20.50;99.90
1355;DHT22;671;48.972;9.276;2023-05-21T07:16:31;20.70;99.90
1355;DHT22;671;48.972;9.276;2023-05-21T07:18:58;20.70;99.90
1355;DHT22;671;48.972;9.276;2023-05-21T07:21:24;20.80;99.90
1355;DHT22;671;48.972;9.276;2023-05-21T07:23:51;20.90;99.90
1355;DHT22;671;48.972;9.276;2023-05-21T07:26:17;21.10;99.90
1355;DHT22;671;48.972;9.276;2023-05-21T07:28:44;21.10;99.90
1355;DHT22;671;48.972;9.276;2023-05-21T07:31:10;21.20;99.90
1355;DHT22;671;48.972;9.276;2023-05-21T07:33:37;21.10;99.90
1355;DHT22;671;48.972;9.276;2023-05-21T07:36:04;21.10;99.90
1355;DHT22;671;48.972;9.276;2023-05-21T07:38:31;21.20;99.90
1355;DHT22;671;48.972;9.276;2023-05-21T07:40:58;21.20;99.90
1355;DHT22;671;48.972;9.276;2023-05-21T07:43:24;21.40;99.90
1355;DHT22;671;48.972;9.276;2023-05-21T07:45:51;21.40;99.90
1355;DHT22;671;48.972;9.276;2023-05-21T07:48:17;21.50;99.90
1355;DHT22;671;48.972;9.276;2023-05-21T07:50:44;21.50;99.90
1355;DHT22;671;48.972;9.276;2023-05-21T07:53:13;21.60;99.90
1355;DHT22;671;48.972;9.276;2023-05-21T07:55:39;21.70;99.90
1355;DHT22;671;48.972;9.276;2023-05-21T07:58:16;21.70;99.90
1355;DHT22;671;48.972;9.276;2023-05-21T08:00:45;21.70;99.90
1355;DHT22;671;48.972;9.276;2023-05-21T08:03:16;21.80;99.90
1355;DHT22;671;48.972;9.276;2023-05-21T08:05:43;21.90;99.90
1355;DHT22;671;48.972;9.276;2023-05-21T08:08:17;21.90;99.90
1355;DHT22;671;48.972;9.276;2023-05-21T08:10:44;22.10;99.90
1355;DHT22;671;48.972;9.276;2023-05-21T08:13:15;22.10;99.90
1355;DHT22;671;48.972;9.276;2023-05-21T08:15:42;22.30;99.90
1355;DHT22;671;48.972;9.276;2023-05-21T08:18:08;22.40;99.90
1355;DHT22;671;48.972;9.276;2023-05-21T08:20:35;22.40;99.90
1355;DHT22;671;48.972;9.276;2023-05-21T08:23:01;22.50;99.90
1355;DHT22;671;48.972;9.276;2023-05-21T08:25:28;22.60;99.90
1355;DHT22;671;48.972;9.276;2023-05-21T08:27:55;22.60;99.90
1355;DHT22;671;48.972;9.276;2023-05-21T08:30:21;22.60;99.90
1355;DHT22;671;48.972;9.276;2023-05-21T08:32:48;22.60;99.90
1355;DHT22;671;48.972;9.276;2023-05-21T08:35:15;22.70;99.90
1355;DHT22;671;48.972;9.276;2023-05-21T08:37:41;22.80;99.90
1355;DHT22;671;48.972;9.276;2023-05-21T08:40:08;22.80;99.90
1355;DHT22;671;48.972;9.276;2023-05-21T08:45:16;23.10;99.90
1355;DHT22;671;48.972;9.276;2023-05-21T08:47:45;23.30;99.90
1355;DHT22;671;48.972;9.276;2023-05-21T08:50:15;23.40;99.90
1355;DHT22;671;48.972;9.276;2023-05-21T08:52:42;23.50;99.90
1355;DHT22;671;48.972;9.276;2023-05-21T08:55:08;23.50;99.90
1355;DHT22;671;48.972;9.276;2023-05-21T08:57:36;23.50;99.90
1355;DHT22;671;48.972;9.276;2023-05-21T09:00:03;23.50;99.90
1355;DHT22;671;48.972;9.276;2023-05-21T09:02:33;23.60;99.90
1355;DHT22;671;48.972;9.276;2023-05-21T09:05:00;23.70;99.90
1355;DHT22;671;48.972;9.276;2023-05-21T09:07:29;23.80;99.90
1355;DHT22;671;48.972;9.276;2023-05-21T09:09:57;23.80;99.90
1355;DHT22;671;48.972;9.276;2023-05-21T09:12:27;24.00;99.90
1355;DHT22;671;48.972;9.276;2023-05-21T09:14:54;23.90;99.90
1355;DHT22;671;48.972;9.276;2023-05-21T09:17:23;24.00;99.90
1355;DHT22;671;48.972;9.276;2023-05-21T09:25:07;24.10;99.90
1355;DHT22;671;48.972;9.276;2023-05-21T09:27:34;24.30;99.90
1355;DHT22;671;48.972;9.276;2023-05-21T09:30:09;24.30;99.90
1355;DHT22;671;48.972;9.276;2023-05-21T09:32:36;24.20;99.90
1355;DHT22;671;48.972;9.276;2023-05-21T09:35:13;24.20;99.90
1355;DHT22;671;48.972;9.276;2023-05-21T09:37:44;24.30;99.90
1355;DHT22;671;48.972;9.276;2023-05-21T09:42:51;24.50;99.90
1355;DHT22;671;48.972;9.276;2023-05-21T09:45:19;24.70;99.90
1355;DHT22;671;48.972;9.276;2023-05-21T09:47:47;24.80;99.90
1355;DHT22;671;48.972;9.276;2023-05-21T09:50:24;24.70;99.90
1355;DHT22;671;48.972;9.276;2023-05-21T09:52:53;24.80;99.90
1355;DHT22;671;48.972;9.276;2023-05-21T09:55:25;25.00;99.90
1355;DHT22;671;48.972;9.276;2023-05-21T09:57:52;25.00;99.90
1355;DHT22;671;48.972;9.276;2023-05-21T10:00:20;25.10;99.90
1355;DHT22;671;48.972;9.276;2023-05-21T10:02:49;25.30;99.90
1355;DHT22;671;48.972;9.276;2023-05-21T10:05:16;25.40;99.90
1355;DHT22;671;48.972;9.276;2023-05-21T10:07:50;25.40;99.90
1355;DHT22;671;48.972;9.276;2023-05-21T10:10:21;25.50;99.90
1355;DHT22;671;48.972;9.276;2023-05-21T10:12:54;25.60;99.90
1355;DHT22;671;48.972;9.276;2023-05-21T10:15:23;25.60;99.90
1355;DHT22;671;48.972;9.276;2023-05-21T10:17:51;25.60;99.90
1355;DHT22;671;48.972;9.276;2023-05-21T10:20:18;25.60;99.90
1355;DHT22;671;48.972;9.276;2023-05-21T10:22:46;25.60;99.90
1355;DHT22;671;48.972;9.276;2023-05-21T10:25:14;25.60;99.90
1355;DHT22;671;48.972;9.276;2023-05-21T10:27:40;25.50;99.90
1355;DHT22;671;48.972;9.276;2023-05-21T10:30:07;25.60;99.90
1355;DHT22;671;48.972;9.276;2023-05-21T10:32:35;25.70;99.90
1355;DHT22;671;48.972;9.276;2023-05-21T10:35:01;25.70;99.90
1355;DHT22;671;48.972;9.276;2023-05-21T10:37:28;25.70;99.90
1355;DHT22;671;48.972;9.276;2023-05-21T10:39:55;25.70;99.90
1355;DHT22;671;48.972;9.276;2023-05-21T10:48:11;25.90;99.90
1355;DHT22;671;48.972;9.276;2023-05-21T10:56:34;26.10;99.90
1355;DHT22;671;48.972;9.276;2023-05-21T11:01:41;26.10;99.90
1355;DHT22;671;48.972;9.276;2023-05-21T11:04:07;26.20;99.90
1355;DHT22;671;48.972;9.276;2023-05-21T11:06:34;26.10;99.90
1355;DHT22;671;48.972;9.276;2023-05-21T11:09:21;26.10;99.90
1355;DHT22;671;48.972;9.276;2023-05-21T11:11:52;26.10;99.70
1355;DHT22;671;48.972;9.276;2023-05-21T11:19:42;26.00;99.90
1355;DHT22;671;48.972;9.276;2023-05-21T11:24:47;26.20;99.80
1355;DHT22;671;48.972;9.276;2023-05-21T11:27:36;26.20;99.90
1355;DHT22;671;48.972;9.276;2023-05-21T11:30:06;26.30;99.90
1355;DHT22;671;48.972;9.276;2023-05-21T11:35:56;26.40;99.90
1355;DHT22;671;48.972;9.276;2023-05-21T11:38:27;26.40;99.90
1355;DHT22;671;48.972;9.276;2023-05-21T11:40:54;26.50;99.90
1355;DHT22;671;48.972;9.276;2023-05-21T11:43:26;26.60;99.90
1355;DHT22;671;48.972;9.276;2023-05-21T11:45:53;26.70;99.90
1355;DHT22;671;48.972;9.276;2023-05-21T11:48:23;26.80;99.90
1355;DHT22;671;48.972;9.276;2023-05-21T11:50:50;26.90;99.90
1355;DHT22;671;48.972;9.276;2023-05-21T11:53:16;27.00;99.90
1355;DHT22;671;48.972;9.276;2023-05-21T11:55:43;27.10;99.90
1355;DHT22;671;48.972;9.276;2023-05-21T11:58:12;27.30;99.90
1355;DHT22;671;48.972;9.276;2023-05-21T12:00:44;27.30;99.90
1355;DHT22;671;48.972;9.276;2023-05-21T12:03:13;27.30;99.50
1355;DHT22;671;48.972;9.276;2023-05-21T12:05:46;27.30;99.40
1355;DHT22;671;48.972;9.276;2023-05-21T12:08:23;27.40;99.90
1355;DHT22;671;48.972;9.276;2023-05-21T12:10:59;27.50;99.50
1355;DHT22;671;48.972;9.276;2023-05-21T12:13:27;27.60;99.00
1355;DHT22;671;48.972;9.276;2023-05-21T12:15:53;27.80;98.00
1355;DHT22;671;48.972;9.276;2023-05-21T12:18:20;27.90;99.40
1355;DHT22;671;48.972;9.276;2023-05-21T12:20:46;27.90;99.50
1355;DHT22;671;48.972;9.276;2023-05-21T12:23:22;27.90;98.80
1355;DHT22;671;48.972;9.276;2023-05-21T12:25:50;28.00;99.10
1355;DHT22;671;48.972;9.276;2023-05-21T12:28:17;28.00;98.20
1355;DHT22;671;48.972;9.276;2023-05-21T12:30:44;28.00;97.90
1355;DHT22;671;48.972;9.276;2023-05-21T12:33:11;28.00;97.70
1355;DHT22;671;48.972;9.276;2023-05-21T12:35:39;28.10;97.30
1355;DHT22;671;48.972;9.276;2023-05-21T12:38:06;28.20;96.70
1355;DHT22;671;48.972;9.276;2023-05-21T12:40:35;28.30;96.60
1355;DHT22;671;48.972;9.276;2023-05-21T12:43:03;28.40;99.20
1355;DHT22;671;48.972;9.276;2023-05-21T12:45:31;28.40;93.80
1355;DHT22;671;48.972;9.276;2023-05-21T12:48:01;28.40;92.60
1355;DHT22;671;48.972;9.276;2023-05-21T12:50:28;28.50;91.80
1355;DHT22;671;48.972;9.276;2023-05-21T12:52:55;28.60;92.30
1355;DHT22;671;48.972;9.276;2023-05-21T12:55:24;28.60;93.90
1355;DHT22;671;48.972;9.276;2023-05-21T12:58:04;28.60;91.90
1355;DHT22;671;48.972;9.276;2023-05-21T13:00:33;28.60;90.20
1355;DHT22;671;48.972;9.276;2023-05-21T13:03:01;28.60;90.30
1355;DHT22;671;48.972;9.276;2023-05-21T13:05:29;28.70;92.90
1355;DHT22;671;48.972;9.276;2023-05-21T13:07:56;28.70;90.70
1355;DHT22;671;48.972;9.276;2023-05-21T13:10:22;28.70;90.30
1355;DHT22;671;48.972;9.276;2023-05-21T13:12:49;28.70;89.80
1355;DHT22;671;48.972;9.276;2023-05-21T13:15:15;28.70;87.90
1355;DHT22;671;48.972;9.276;2023-05-21T13:17:42;28.80;91.20
1355;DHT22;671;48.972;9.276;2023-05-21T13:20:15;28.80;90.30
1355;DHT22;671;48.972;9.276;2023-05-21T13:22:46;29.00;90.60
1355;DHT22;671;48.972;9.276;2023-05-21T13:25:15;29.00;90.20
1355;DHT22;671;48.972;9.276;2023-05-21T13:27:43;29.00;89.10
1355;DHT22;671;48.972;9.276;2023-05-21T13:30:10;28.90;86.00
1355;DHT22;671;48.972;9.276;2023-05-21T13:32:37;28.80;84.70
1355;DHT22;671;48.972;9.276;2023-05-21T13:35:04;28.70;89.90
1355;DHT22;671;48.972;9.276;2023-05-21T13:37:32;28.80;88.90
1355;DHT22;671;48.972;9.276;2023-05-21T13:40:02;28.80;85.00
1355;DHT22;671;48.972;9.276;2023-05-21T13:42:29;28.90;88.20
1355;DHT22;671;48.972;9.276;2023-05-21T13:44:56;28.90;84.70
1355;DHT22;671;48.972;9.276;2023-05-21T13:47:22;29.10;89.00
1355;DHT22;671;48.972;9.276;2023-05-21T13:49:49;29.30;83.70
1355;DHT22;671;48.972;9.276;2023-05-21T13:52:16;29.40;82.10
1355;DHT22;671;48.972;9.276;2023-05-21T13:54:42;29.40;81.40
1355;DHT22;671;48.972;9.276;2023-05-21T13:57:09;29.20;80.40
1355;DHT22;671;48.972;9.276;2023-05-21T13:59:35;29.30;82.70
1355;DHT22;671;48.972;9.276;2023-05-21T14:02:02;29.30;80.30
1355;DHT22;671;48.972;9.276;2023-05-21T14:04:29;29.30;80.30
1355;DHT22;671;48.972;9.276;2023-05-21T14:06:55;29.40;79.40
1355;DHT22;671;48.972;9.276;2023-05-21T14:09:22;29.40;80.30
1355;DHT22;671;48.972;9.276;2023-05-21T14:11:48;29.50;77.40
1355;DHT22;671;48.972;9.276;2023-05-21T14:14:15;29.60;77.30
1355;DHT22;671;48.972;9.276;2023-05-21T14:16:45;29.60;77.80
1355;DHT22;671;48.972;9.276;2023-05-21T14:19:12;29.50;74.40
1355;DHT22;671;48.972;9.276;2023-05-21T14:21:39;29.60;76.00
1355;DHT22;671;48.972;9.276;2023-05-21T14:24:06;29.60;80.60
1355;DHT22;671;48.972;9.276;2023-05-21T14:26:33;29.50;78.20
1355;DHT22;671;48.972;9.276;2023-05-21T14:29:01;29.60;82.10
1355;DHT22;671;48.972;9.276;2023-05-21T14:31:28;29.70;81.50
1355;DHT22;671;48.972;9.276;2023-05-21T14:33:54;29.60;80.50
1355;DHT22;671;48.972;9.276;2023-05-21T14:36:21;29.50;83.60
1355;DHT22;671;48.972;9.276;2023-05-21T14:38:47;29.50;83.60
1355;DHT22;671;48.972;9.276;2023-05-21T14:41:14;29.40;79.40
1355;DHT22;671;48.972;9.276;2023-05-21T14:43:40;29.40;79.70
1355;DHT22;671;48.972;9.276;2023-05-21T14:46:07;29.30;77.60
1355;DHT22;671;48.972;9.276;2023-05-21T14:48:33;29.20;78.00
1355;DHT22;671;48.972;9.276;2023-05-21T14:51:00;29.20;80.20
1355;DHT22;671;48.972;9.276;2023-05-21T14:53:26;29.20;80.20
1355;DHT22;671;48.972;9.276;2023-05-21T14:55:53;29.30;78.70
1355;DHT22;671;48.972;9.276;2023-05-21T14:58:19;29.20;78.20
1355;DHT22;671;48.972;9.276;2023-05-21T15:00:46;29.20;78.00
1355;DHT22;671;48.972;9.276;2023-05-21T15:03:12;29.00;80.00
1355;DHT22;671;48.972;9.276;2023-05-21T15:05:39;29.00;84.20
1355;DHT22;671;48.972;9.276;2023-05-21T15:08:05;29.00;79.60
1355;DHT22;671;48.972;9.276;2023-05-21T15:10:33;28.90;78.70
1355;DHT22;671;48.972;9.276;2023-05-21T15:12:59;28.80;79.90
1355;DHT22;671;48.972;9.276;2023-05-21T15:15:26;28.70;78.80
1355;DHT22;671;48.972;9.276;2023-05-21T15:17:52;28.70;80.40
1355;DHT22;671;48.972;9.276;2023-05-21T15:20:19;28.60;85.90
1355;DHT22;671;48.972;9.276;2023-05-21T15:22:46;28.50;81.70
1355;DHT22;671;48.972;9.276;2023-05-21T15:25:13;28.50;80.10
1355;DHT22;671;48.972;9.276;2023-05-21T15:27:39;28.50;81.10
1355;DHT22;671;48.972;9.276;2023-05-21T15:30:06;28.50;79.70
1355;DHT22;671;48.972;9.276;2023-05-21T15:32:33;28.40;79.60
1355;DHT22;671;48.972;9.276;2023-05-21T15:34:59;28.30;80.00
1355;DHT22;671;48.972;9.276;2023-05-21T15:37:26;28.30;81.80
1355;DHT22;671;48.972;9.276;2023-05-21T15:39:52;28.20;82.20
1355;DHT22;671;48.972;9.276;2023-05-21T15:42:19;28.20;82.30
1355;DHT22;671;48.972;9.276;2023-05-21T15:44:45;28.20;82.90
1355;DHT22;671;48.972;9.276;2023-05-21T15:47:12;28.10;82.50
1355;DHT22;671;48.972;9.276;2023-05-21T15:49:38;28.00;83.80
1355;DHT22;671;48.972;9.276;2023-05-21T15:52:05;28.00;86.70
1355;DHT22;671;48.972;9.276;2023-05-21T15:54:31;27.90;88.20
1355;DHT22;671;48.972;9.276;2023-05-21T15:56:58;27.90;89.10
1355;DHT22;671;48.972;9.276;2023-05-21T15:59:24;27.90;90.00
1355;DHT22;671;48.972;9.276;2023-05-21T16:01:53;27.90;88.20
1355;DHT22;671;48.972;9.276;2023-05-21T16:04:20;27.90;89.20
1355;DHT22;671;48.972;9.276;2023-05-21T16:06:47;27.90;90.00
1355;DHT22;671;48.972;9.276;2023-05-21T16:09:14;27.90;88.70
1355;DHT22;671;48.972;9.276;2023-05-21T16:11:40;27.90;88.70
1355;DHT22;671;48.972;9.276;2023-05-21T16:14:10;27.70;89.90
1355;DHT22;671;48.972;9.276;2023-05-21T16:16:37;27.70;90.00
1355;DHT22;671;48.972;9.276;2023-05-21T16:19:04;27.60;90.10
1355;DHT22;671;48.972;9.276;2023-05-21T16:21:31;27.50;90.40
1355;DHT22;671;48.972;9.276;2023-05-21T16:23:58;27.50;90.70
1355;DHT22;671;48.972;9.276;2023-05-21T16:26:25;27.40;91.30
1355;DHT22;671;48.972;9.276;2023-05-21T16:28:51;27.40;91.60
1355;DHT22;671;48.972;9.276;2023-05-21T16:31:18;27.40;91.30
1355;DHT22;671;48.972;9.276;2023-05-21T16:33:45;27.30;90.90
1355;DHT22;671;48.972;9.276;2023-05-21T16:36:11;27.30;92.00
1355;DHT22;671;48.972;9.276;2023-05-21T16:38:38;27.30;91.80
1355;DHT22;671;48.972;9.276;2023-05-21T16:41:04;27.20;92.10
1355;DHT22;671;48.972;9.276;2023-05-21T16:43:31;27.30;92.00
1355;DHT22;671;48.972;9.276;2023-05-21T16:45:57;27.30;92.90
1355;DHT22;671;48.972;9.276;2023-05-21T16:48:24;27.30;92.40
1355;DHT22;671;48.972;9.276;2023-05-21T16:50:50;27.20;92.70
1355;DHT22;671;48.972;9.276;2023-05-21T16:53:17;27.20;93.40
1355;DHT22;671;48.972;9.276;2023-05-21T16:55:43;27.20;93.60
1355;DHT22;671;48.972;9.276;2023-05-21T16:58:09;27.10;93.80